sensor_id;sensor_type;location;lat;lon;timestamp;temperature;humidity
33901;DHT22;20193;49.810;6.418;2022-08-11T07:20:46;29.30;46.80
33901;DHT22;20193;49.810;6.418;2022-08-11T07:23:34;29.50;46.10
33901;DHT22;20193;49.810;6.418;2022-08-11T07:26:23;29.80;46.50
33901;DHT22;20193;49.810;6.418;2022-08-11T07:29:12;30.10;45.40
33901;DHT22;20193;49.810;6.418;2022-08-11T07:31:47;30.50;43.70
33901;DHT22;20193;49.810;6.418;2022-08-11T07:34:34;30.80;42.90
33901;DHT22;20193;49.810;6.418;2022-08-11T07:37:10;31.10;42.90
33901;DHT22;20193;49.810;6.418;2022-08-11T07:39:43;31.50;42.60
33901;DHT22;20193;49.810;6.418;2022-08-11T07:42:12;31.80;42.10
33901;DHT22;20193;49.810;6.418;2022-08-11T07:44:43;32.20;41.20
33901;DHT22;20193;49.810;6.418;2022-08-11T07:47:28;32.40;40.30
33901;DHT22;20193;49.810;6.418;2022-08-11T07:50:12;32.70;40.00
33901;DHT22;20193;49.810;6.418;2022-08-11T07:52:58;33.10;39.40
33901;DHT22;20193;49.810;6.418;2022-08-11T07:55:25;33.50;38.10
33901;DHT22;20193;49.810;6.418;2022-08-11T07:57:52;33.70;37.20
33901;DHT22;20193;49.810;6.418;2022-08-11T08:00:42;34.10;36.90
33901;DHT22;20193;49.810;6.418;2022-08-11T08:03:28;34.40;36.60
33901;DHT22;20193;49.810;6.418;2022-08-11T08:06:15;34.70;35.60
33901;DHT22;20193;49.810;6.418;2022-08-11T08:09:01;34.90;35.20
33901;DHT22;20193;49.810;6.418;2022-08-11T08:11:46;35.10;33.30
33901;DHT22;20193;49.810;6.418;2022-08-11T08:14:31;35.20;33.50
33901;DHT22;20193;49.810;6.418;2022-08-11T08:17:15;35.30;33.30
33901;DHT22;20193;49.810;6.418;2022-08-11T08:20:00;35.40;32.50
33901;DHT22;20193;49.810;6.418;2022-08-11T08:22:28;35.60;32.80
33901;DHT22;20193;49.810;6.418;2022-08-11T08:24:54;35.70;32.60
33901;DHT22;20193;49.810;6.418;2022-08-11T08:27:21;35.90;32.50
33901;DHT22;20193;49.810;6.418;2022-08-11T08:29:47;36.00;31.90
33901;DHT22;20193;49.810;6.418;2022-08-11T08:32:33;36.20;31.80
33901;DHT22;20193;49.810;6.418;2022-08-11T08:35:03;36.20;30.70
33901;DHT22;20193;49.810;6.418;2022-08-11T08:37:30;36.20;30.60
33901;DHT22;20193;49.810;6.418;2022-08-11T08:39:57;36.30;30.10
33901;DHT22;20193;49.810;6.418;2022-08-11T08:42:29;36.40;30.00
33901;DHT22;20193;49.810;6.418;2022-08-11T08:45:02;36.50;30.00
33901;DHT22;20193;49.810;6.418;2022-08-11T08:47:29;36.50;30.00
33901;DHT22;20193;49.810;6.418;2022-08-11T08:50:00;36.50;30.40
33901;DHT22;20193;49.810;6.418;2022-08-11T08:52:32;36.50;29.40
33901;DHT22;20193;49.810;6.418;2022-08-11T08:55:02;36.50;29.40
33901;DHT22;20193;49.810;6.418;2022-08-11T08:57:31;36.40;29.90
33901;DHT22;20193;49.810;6.418;2022-08-11T08:59:58;36.30;29.50
33901;DHT22;20193;49.810;6.418;2022-08-11T09:02:25;36.30;29.60
33901;DHT22;20193;49.810;6.418;2022-08-11T09:04:52;36.10;29.30
33901;DHT22;20193;49.810;6.418;2022-08-11T09:07:21;36.10;29.80
33901;DHT22;20193;49.810;6.418;2022-08-11T09:09:50;36.00;28.70
33901;DHT22;20193;49.810;6.418;2022-08-11T09:12:18;35.90;28.70
33901;DHT22;20193;49.810;6.418;2022-08-11T09:14:48;35.90;28.70
33901;DHT22;20193;49.810;6.418;2022-08-11T09:17:36;35.70;28.70
33901;DHT22;20193;49.810;6.418;2022-08-11T09:20:07;35.60;28.30
33901;DHT22;20193;49.810;6.418;2022-08-11T09:22:35;35.50;28.50
33901;DHT22;20193;49.810;6.418;2022-08-11T09:25:21;35.30;28.40
33901;DHT22;20193;49.810;6.418;2022-08-11T09:28:12;35.20;28.70
33901;DHT22;20193;49.810;6.418;2022-08-11T09:30:44;35.00;29.10
33901;DHT22;20193;49.810;6.418;2022-08-11T09:33:13;35.00;29.10
33901;DHT22;20193;49.810;6.418;2022-08-11T09:35:58;35.00;28.70
33901;DHT22;20193;49.810;6.418;2022-08-11T09:38:45;34.90;28.70
33901;DHT22;20193;49.810;6.418;2022-08-11T09:41:31;34.80;29.00
33901;DHT22;20193;49.810;6.418;2022-08-11T09:43:57;34.60;28.20
33901;DHT22;20193;49.810;6.418;2022-08-11T09:46:43;34.40;28.40
33901;DHT22;20193;49.810;6.418;2022-08-11T09:49:09;34.10;28.40
33901;DHT22;20193;49.810;6.418;2022-08-11T09:51:35;33.60;28.60
33901;DHT22;20193;49.810;6.418;2022-08-11T09:54:02;33.50;28.50
33901;DHT22;20193;49.810;6.418;2022-08-11T09:56:32;32.90;28.70
33901;DHT22;20193;49.810;6.418;2022-08-11T09:59:20;32.50;29.30
33901;DHT22;20193;49.810;6.418;2022-08-11T10:01:51;32.20;30.00
33901;DHT22;20193;49.810;6.418;2022-08-11T10:04:26;32.20;30.50
33901;DHT22;20193;49.810;6.418;2022-08-11T10:06:57;32.20;30.70
33901;DHT22;20193;49.810;6.418;2022-08-11T10:09:33;32.10;30.20
33901;DHT22;20193;49.810;6.418;2022-08-11T10:12:01;32.00;30.60
33901;DHT22;20193;49.810;6.418;2022-08-11T10:14:29;31.90;30.70
33901;DHT22;20193;49.810;6.418;2022-08-11T10:17:16;31.70;30.80
33901;DHT22;20193;49.810;6.418;2022-08-11T10:19:46;31.40;31.50
33901;DHT22;20193;49.810;6.418;2022-08-11T10:22:14;31.30;31.80
33901;DHT22;20193;49.810;6.418;2022-08-11T10:25:01;31.10;32.00
33901;DHT22;20193;49.810;6.418;2022-08-11T10:27:46;30.90;32.50
33901;DHT22;20193;49.810;6.418;2022-08-11T10:30:18;30.80;32.90
33901;DHT22;20193;49.810;6.418;2022-08-11T10:33:02;30.80;33.10
33901;DHT22;20193;49.810;6.418;2022-08-11T10:35:47;30.80;33.20
33901;DHT22;20193;49.810;6.418;2022-08-11T10:38:19;30.80;33.30
33901;DHT22;20193;49.810;6.418;2022-08-11T10:40:46;30.80;33.60
33901;DHT22;20193;49.810;6.418;2022-08-11T10:43:32;30.80;33.70
33901;DHT22;20193;49.810;6.418;2022-08-11T10:45:59;30.80;33.60
33901;DHT22;20193;49.810;6.418;2022-08-11T10:48:43;30.80;33.80
33901;DHT22;20193;49.810;6.418;2022-08-11T10:51:10;30.80;34.00
33901;DHT22;20193;49.810;6.418;2022-08-11T10:53:48;30.80;33.90
33901;DHT22;20193;49.810;6.418;2022-08-11T10:56:37;30.70;33.40
33901;DHT22;20193;49.810;6.418;2022-08-11T10:59:27;30.60;33.30
33901;DHT22;20193;49.810;6.418;2022-08-11T11:01:55;30.50;33.00
33901;DHT22;20193;49.810;6.418;2022-08-11T11:04:28;30.40;33.10
33901;DHT22;20193;49.810;6.418;2022-08-11T11:09:48;30.30;32.70
33901;DHT22;20193;49.810;6.418;2022-08-11T11:12:38;30.30;32.80
33901;DHT22;20193;49.810;6.418;2022-08-11T11:15:24;30.30;33.00
33901;DHT22;20193;49.810;6.418;2022-08-11T11:18:25;30.20;32.70
33901;DHT22;20193;49.810;6.418;2022-08-11T11:20:58;30.00;33.00
33901;DHT22;20193;49.810;6.418;2022-08-11T11:29:23;29.80;33.00
33901;DHT22;20193;49.810;6.418;2022-08-11T11:36:56;29.80;33.20
33901;DHT22;20193;49.810;6.418;2022-08-11T11:39:25;29.90;33.00
33901;DHT22;20193;49.810;6.418;2022-08-11T11:41:56;29.90;32.70
33901;DHT22;20193;49.810;6.418;2022-08-11T11:44:24;29.90;32.30
33901;DHT22;20193;49.810;6.418;2022-08-11T11:46:51;29.90;32.70
33901;DHT22;20193;49.810;6.418;2022-08-11T11:49:18;29.90;32.50
33901;DHT22;20193;49.810;6.418;2022-08-11T11:51:46;29.80;32.70
33901;DHT22;20193;49.810;6.418;2022-08-11T11:54:14;29.80;32.90
33901;DHT22;20193;49.810;6.418;2022-08-11T11:56:41;29.70;31.50
33901;DHT22;20193;49.810;6.418;2022-08-11T11:59:08;29.70;31.70
33901;DHT22;20193;49.810;6.418;2022-08-11T12:01:54;29.80;31.80
33901;DHT22;20193;49.810;6.418;2022-08-11T12:04:21;29.80;31.80
33901;DHT22;20193;49.810;6.418;2022-08-11T12:06:47;29.80;31.30
33901;DHT22;20193;49.810;6.418;2022-08-11T12:09:13;29.80;31.70
33901;DHT22;20193;49.810;6.418;2022-08-11T12:11:43;29.80;30.90
33901;DHT22;20193;49.810;6.418;2022-08-11T12:14:28;29.80;30.90
33901;DHT22;20193;49.810;6.418;2022-08-11T12:16:55;29.90;31.30
33901;DHT22;20193;49.810;6.418;2022-08-11T12:19:26;30.10;31.10
33901;DHT22;20193;49.810;6.418;2022-08-11T12:21:55;30.10;31.20
33901;DHT22;20193;49.810;6.418;2022-08-11T12:24:40;30.20;31.20
33901;DHT22;20193;49.810;6.418;2022-08-11T12:27:26;30.20;30.90
33901;DHT22;20193;49.810;6.418;2022-08-11T12:30:00;30.10;30.20
33901;DHT22;20193;49.810;6.418;2022-08-11T12:32:31;30.10;30.50
33901;DHT22;20193;49.810;6.418;2022-08-11T12:34:58;30.10;30.40
33901;DHT22;20193;49.810;6.418;2022-08-11T12:37:39;30.10;31.10
33901;DHT22;20193;49.810;6.418;2022-08-11T12:40:10;30.10;31.10
33901;DHT22;20193;49.810;6.418;2022-08-11T12:43:00;30.10;31.30
33901;DHT22;20193;49.810;6.418;2022-08-11T12:45:45;30.20;31.40
33901;DHT22;20193;49.810;6.418;2022-08-11T12:48:20;30.20;31.20
33901;DHT22;20193;49.810;6.418;2022-08-11T12:51:24;30.20;31.60
33901;DHT22;20193;49.810;6.418;2022-08-11T12:54:15;30.20;31.70
33901;DHT22;20193;49.810;6.418;2022-08-11T12:56:46;30.20;31.50
33901;DHT22;20193;49.810;6.418;2022-08-11T12:59:31;30.20;31.50
33901;DHT22;20193;49.810;6.418;2022-08-11T13:02:19;30.20;31.30
33901;DHT22;20193;49.810;6.418;2022-08-11T13:05:06;30.30;31.10
33901;DHT22;20193;49.810;6.418;2022-08-11T13:07:33;30.30;31.30
33901;DHT22;20193;49.810;6.418;2022-08-11T13:10:02;30.30;31.60
33901;DHT22;20193;49.810;6.418;2022-08-11T13:12:30;30.20;31.70
33901;DHT22;20193;49.810;6.418;2022-08-11T13:15:20;30.20;31.60
33901;DHT22;20193;49.810;6.418;2022-08-11T13:17:48;30.20;31.40
33901;DHT22;20193;49.810;6.418;2022-08-11T13:20:23;30.20;31.50
33901;DHT22;20193;49.810;6.418;2022-08-11T13:22:51;30.30;31.70
33901;DHT22;20193;49.810;6.418;2022-08-11T13:25:20;30.30;31.30
33901;DHT22;20193;49.810;6.418;2022-08-11T13:27:48;30.40;31.30
33901;DHT22;20193;49.810;6.418;2022-08-11T13:30:15;30.40;31.50
33901;DHT22;20193;49.810;6.418;2022-08-11T13:33:00;30.50;31.20
33901;DHT22;20193;49.810;6.418;2022-08-11T13:35:31;30.50;31.30
33901;DHT22;20193;49.810;6.418;2022-08-11T13:38:00;30.60;31.20
33901;DHT22;20193;49.810;6.418;2022-08-11T13:40:26;30.60;31.50
33901;DHT22;20193;49.810;6.418;2022-08-11T13:42:53;30.60;31.60
33901;DHT22;20193;49.810;6.418;2022-08-11T13:45:21;30.70;31.50
33901;DHT22;20193;49.810;6.418;2022-08-11T13:47:49;30.80;31.60
33901;DHT22;20193;49.810;6.418;2022-08-11T13:50:16;30.60;31.00
33901;DHT22;20193;49.810;6.418;2022-08-11T13:52:43;30.60;31.20
33901;DHT22;20193;49.810;6.418;2022-08-11T13:55:11;30.60;31.30
33901;DHT22;20193;49.810;6.418;2022-08-11T13:57:51;30.60;31.20
33901;DHT22;20193;49.810;6.418;2022-08-11T14:00:18;30.80;31.40
33901;DHT22;20193;49.810;6.418;2022-08-11T14:02:47;30.70;31.10
33901;DHT22;20193;49.810;6.418;2022-08-11T14:05:35;30.80;31.30
33901;DHT22;20193;49.810;6.418;2022-08-11T14:08:06;30.70;31.40
33901;DHT22;20193;49.810;6.418;2022-08-11T14:10:36;30.70;31.20
33901;DHT22;20193;49.810;6.418;2022-08-11T14:13:14;30.60;31.40
33901;DHT22;20193;49.810;6.418;2022-08-11T14:16:03;30.60;31.50
33901;DHT22;20193;49.810;6.418;2022-08-11T14:18:32;30.60;31.60
33901;DHT22;20193;49.810;6.418;2022-08-11T14:21:00;30.60;31.70
33901;DHT22;20193;49.810;6.418;2022-08-11T14:23:48;30.70;31.50
33901;DHT22;20193;49.810;6.418;2022-08-11T14:26:17;30.70;30.90
33901;DHT22;20193;49.810;6.418;2022-08-11T14:31:23;30.80;30.90
33901;DHT22;20193;49.810;6.418;2022-08-11T14:33:55;30.80;31.50
33901;DHT22;20193;49.810;6.418;2022-08-11T14:36:25;30.90;30.80
33901;DHT22;20193;49.810;6.418;2022-08-11T14:38:53;30.90;30.70
33901;DHT22;20193;49.810;6.418;2022-08-11T14:41:20;30.90;31.00
33901;DHT22;20193;49.810;6.418;2022-08-11T14:44:07;30.90;30.50
33901;DHT22;20193;49.810;6.418;2022-08-11T14:47:00;31.00;30.60
33901;DHT22;20193;49.810;6.418;2022-08-11T14:49:29;30.90;30.60
33901;DHT22;20193;49.810;6.418;2022-08-11T14:51:56;30.90;30.40
33901;DHT22;20193;49.810;6.418;2022-08-11T14:54:29;30.90;30.80
33901;DHT22;20193;49.810;6.418;2022-08-11T14:57:15;30.90;30.80
33901;DHT22;20193;49.810;6.418;2022-08-11T14:59:42;31.00;30.70
33901;DHT22;20193;49.810;6.418;2022-08-11T15:02:08;31.00;30.80
33901;DHT22;20193;49.810;6.418;2022-08-11T15:04:55;31.00;31.00
33901;DHT22;20193;49.810;6.418;2022-08-11T15:07:21;31.00;31.20
33901;DHT22;20193;49.810;6.418;2022-08-11T15:09:56;31.00;30.90
33901;DHT22;20193;49.810;6.418;2022-08-11T15:12:23;31.00;31.00
33901;DHT22;20193;49.810;6.418;2022-08-11T15:14:49;30.90;31.40
33901;DHT22;20193;49.810;6.418;2022-08-11T15:17:34;30.80;30.70
33901;DHT22;20193;49.810;6.418;2022-08-11T15:20:03;30.80;31.80
33901;DHT22;20193;49.810;6.418;2022-08-11T15:22:49;30.70;31.20
33901;DHT22;20193;49.810;6.418;2022-08-11T15:25:34;30.70;31.40
33901;DHT22;20193;49.810;6.418;2022-08-11T15:28:01;30.70;31.40
33901;DHT22;20193;49.810;6.418;2022-08-11T15:31:01;30.70;31.70
33901;DHT22;20193;49.810;6.418;2022-08-11T15:33:46;30.70;31.40
33901;DHT22;20193;49.810;6.418;2022-08-11T15:36:32;30.80;31.20
33901;DHT22;20193;49.810;6.418;2022-08-11T15:39:18;30.90;31.20
33901;DHT22;20193;49.810;6.418;2022-08-11T15:41:59;30.90;31.00
33901;DHT22;20193;49.810;6.418;2022-08-11T15:44:52;30.90;31.10
33901;DHT22;20193;49.810;6.418;2022-08-11T15:47:44;30.90;31.60
33901;DHT22;20193;49.810;6.418;2022-08-11T15:50:15;30.90;31.40
33901;DHT22;20193;49.810;6.418;2022-08-11T15:52:55;30.80;31.40
33901;DHT22;20193;49.810;6.418;2022-08-11T15:55:24;30.80;31.60
33901;DHT22;20193;49.810;6.418;2022-08-11T15:57:52;30.80;31.70
33901;DHT22;20193;49.810;6.418;2022-08-11T16:00:39;30.80;31.70
33901;DHT22;20193;49.810;6.418;2022-08-11T16:03:25;30.70;32.20
33901;DHT22;20193;49.810;6.418;2022-08-11T16:06:11;30.80;32.10
33901;DHT22;20193;49.810;6.418;2022-08-11T16:08:40;30.80;32.20
33901;DHT22;20193;49.810;6.418;2022-08-11T16:11:07;30.80;31.60
33901;DHT22;20193;49.810;6.418;2022-08-11T16:13:36;30.90;31.80
33901;DHT22;20193;49.810;6.418;2022-08-11T16:16:07;30.90;32.00
33901;DHT22;20193;49.810;6.418;2022-08-11T16:18:55;31.00;31.90
33901;DHT22;20193;49.810;6.418;2022-08-11T16:21:33;31.00;31.70
33901;DHT22;20193;49.810;6.418;2022-08-11T16:24:00;31.10;31.70
33901;DHT22;20193;49.810;6.418;2022-08-11T16:26:30;31.00;31.80
33901;DHT22;20193;49.810;6.418;2022-08-11T16:28:59;31.00;32.10
33901;DHT22;20193;49.810;6.418;2022-08-11T16:31:26;31.00;32.20
33901;DHT22;20193;49.810;6.418;2022-08-11T16:33:54;31.00;32.30
33901;DHT22;20193;49.810;6.418;2022-08-11T16:36:23;31.00;32.20
33901;DHT22;20193;49.810;6.418;2022-08-11T16:39:09;31.00;32.10
33901;DHT22;20193;49.810;6.418;2022-08-11T16:41:38;31.00;32.30
33901;DHT22;20193;49.810;6.418;2022-08-11T16:44:24;31.00;32.20
33901;DHT22;20193;49.810;6.418;2022-08-11T16:47:12;31.00;31.70
33901;DHT22;20193;49.810;6.418;2022-08-11T16:49:48;30.90;31.90
33901;DHT22;20193;49.810;6.418;2022-08-11T16:52:16;30.80;31.90
33901;DHT22;20193;49.810;6.418;2022-08-11T16:54:42;30.80;31.90
33901;DHT22;20193;49.810;6.418;2022-08-11T16:57:12;30.80;31.70
33901;DHT22;20193;49.810;6.418;2022-08-11T17:00:01;30.80;31.90
33901;DHT22;20193;49.810;6.418;2022-08-11T17:02:32;30.80;32.10
33901;DHT22;20193;49.810;6.418;2022-08-11T17:05:20;30.70;32.30
33901;DHT22;20193;49.810;6.418;2022-08-11T17:08:17;30.60;32.30
33901;DHT22;20193;49.810;6.418;2022-08-11T17:11:04;30.50;32.60
33901;DHT22;20193;49.810;6.418;2022-08-11T17:14:06;30.60;32.60
33901;DHT22;20193;49.810;6.418;2022-08-11T17:16:35;30.60;32.70
33901;DHT22;20193;49.810;6.418;2022-08-11T17:19:12;30.50;32.40
33901;DHT22;20193;49.810;6.418;2022-08-11T17:21:45;30.50;32.20
33901;DHT22;20193;49.810;6.418;2022-08-11T17:24:32;30.60;32.90
33901;DHT22;20193;49.810;6.418;2022-08-11T17:27:00;30.40;32.30
33901;DHT22;20193;49.810;6.418;2022-08-11T17:32:07;30.50;32.50
33901;DHT22;20193;49.810;6.418;2022-08-11T17:34:58;30.50;32.50
33901;DHT22;20193;49.810;6.418;2022-08-11T17:37:43;30.50;32.60
33901;DHT22;20193;49.810;6.418;2022-08-11T17:40:17;30.30;32.70
33901;DHT22;20193;49.810;6.418;2022-08-11T17:42:46;30.20;32.80
33901;DHT22;20193;49.810;6.418;2022-08-11T17:45:31;30.20;33.00
33901;DHT22;20193;49.810;6.418;2022-08-11T17:48:16;30.20;32.80
33901;DHT22;20193;49.810;6.418;2022-08-11T17:51:11;30.20;33.20
33901;DHT22;20193;49.810;6.418;2022-08-11T17:53:59;30.20;33.30
33901;DHT22;20193;49.810;6.418;2022-08-11T17:56:45;30.20;33.50
33901;DHT22;20193;49.810;6.418;2022-08-11T17:59:32;30.20;33.60
33901;DHT22;20193;49.810;6.418;2022-08-11T18:02:29;30.10;33.70
33901;DHT22;20193;49.810;6.418;2022-08-11T18:05:17;30.10;33.70
33901;DHT22;20193;49.810;6.418;2022-08-11T18:07:45;30.10;33.70
33901;DHT22;20193;49.810;6.418;2022-08-11T18:10:31;30.00;33.80
33901;DHT22;20193;49.810;6.418;2022-08-11T18:13:20;30.00;33.90
33901;DHT22;20193;49.810;6.418;2022-08-11T18:16:05;30.00;34.00
33901;DHT22;20193;49.810;6.418;2022-08-11T18:18:50;29.90;34.10
33901;DHT22;20193;49.810;6.418;2022-08-11T18:21:35;29.90;34.20
33901;DHT22;20193;49.810;6.418;2022-08-11T18:24:22;29.80;34.30
33901;DHT22;20193;49.810;6.418;2022-08-11T18:27:09;29.80;34.40
33901;DHT22;20193;49.810;6.418;2022-08-11T18:29:57;29.70;34.50
33901;DHT22;20193;49.810;6.418;2022-08-11T18:32:46;29.70;34.60
33901;DHT22;20193;49.810;6.418;2022-08-11T18:35:32;29.60;35.30
33901;DHT22;20193;49.810;6.418;2022-08-11T18:38:19;29.50;34.70
33901;DHT22;20193;49.810;6.418;2022-08-11T18:41:07;29.50;34.90
33901;DHT22;20193;49.810;6.418;2022-08-11T18:43:54;29.40;35.00
33901;DHT22;20193;49.810;6.418;2022-08-11T18:46:43;29.30;35.10
33901;DHT22;20193;49.810;6.418;2022-08-11T18:49:33;29.20;35.30
33901;DHT22;20193;49.810;6.418;2022-08-11T18:52:18;29.20;35.40
33901;DHT22;20193;49.810;6.418;2022-08-11T18:55:08;29.10;35.60
33901;DHT22;20193;49.810;6.418;2022-08-11T18:57:54;29.00;36.10
33901;DHT22;20193;49.810;6.418;2022-08-11T19:00:41;28.90;37.00
33901;DHT22;20193;49.810;6.418;2022-08-11T19:03:26;28.80;37.50
33901;DHT22;20193;49.810;6.418;2022-08-11T19:06:12;28.70;37.80
33901;DHT22;20193;49.810;6.418;2022-08-11T19:09:00;28.50;38.30
33901;DHT22;20193;49.810;6.418;2022-08-11T19:11:46;28.40;38.70
33901;DHT22;20193;49.810;6.418;2022-08-11T19:14:32;28.20;39.00
33901;DHT22;20193;49.810;6.418;2022-08-11T19:17:19;28.10;39.60
33901;DHT22;20193;49.810;6.418;2022-08-11T19:20:06;27.90;39.90
33901;DHT22;20193;49.810;6.418;2022-08-11T19:22:52;27.80;40.50
33901;DHT22;20193;49.810;6.418;2022-08-11T19:25:37;27.60;40.80
33901;DHT22;20193;49.810;6.418;2022-08-11T19:28:23;27.40;41.00
33901;DHT22;20193;49.810;6.418;2022-08-11T19:31:08;27.20;41.40
33901;DHT22;20193;49.810;6.418;2022-08-11T19:33:54;27.10;42.00
33901;DHT22;20193;49.810;6.418;2022-08-11T19:36:40;26.90;42.30
33901;DHT22;20193;49.810;6.418;2022-08-11T19:39:26;26.70;43.10
33901;DHT22;20193;49.810;6.418;2022-08-11T19:42:12;26.50;43.50
33901;DHT22;20193;49.810;6.418;2022-08-11T19:44:59;26.40;43.70
33901;DHT22;20193;49.810;6.418;2022-08-11T19:47:46;26.20;43.70
33901;DHT22;20193;49.810;6.418;2022-08-11T19:50:32;26.10;43.90
33901;DHT22;20193;49.810;6.418;2022-08-11T19:53:18;25.90;44.10
33901;DHT22;20193;49.810;6.418;2022-08-11T19:56:05;25.70;44.40
33901;DHT22;20193;49.810;6.418;2022-08-11T19:58:50;25.60;44.70
33901;DHT22;20193;49.810;6.418;2022-08-11T20:01:35;25.40;44.80
33901;DHT22;20193;49.810;6.418;2022-08-11T20:04:19;25.30;45.00
33901;DHT22;20193;49.810;6.418;2022-08-11T20:07:04;25.20;45.40
33901;DHT22;20193;49.810;6.418;2022-08-11T20:09:50;25.00;45.70
33901;DHT22;20193;49.810;6.418;2022-08-11T20:12:37;24.90;45.90
33901;DHT22;20193;49.810;6.418;2022-08-11T20:15:22;24.70;46.10
33901;DHT22;20193;49.810;6.418;2022-08-11T20:18:10;24.60;46.30
33901;DHT22;20193;49.810;6.418;2022-08-11T20:20:56;24.50;46.60
33901;DHT22;20193;49.810;6.418;2022-08-11T20:23:44;24.30;46.60
33901;DHT22;20193;49.810;6.418;2022-08-11T20:26:31;24.20;46.90
33901;DHT22;20193;49.810;6.418;2022-08-11T20:29:23;24.00;47.20
33901;DHT22;20193;49.810;6.418;2022-08-11T20:32:10;23.90;47.50
33901;DHT22;20193;49.810;6.418;2022-08-11T20:34:57;23.80;47.60
33901;DHT22;20193;49.810;6.418;2022-08-11T20:37:42;23.70;48.10
33901;DHT22;20193;49.810;6.418;2022-08-11T20:40:27;23.60;48.30
33901;DHT22;20193;49.810;6.418;2022-08-11T20:43:16;23.40;48.40
33901;DHT22;20193;49.810;6.418;2022-08-11T20:46:03;23.40;48.80
33901;DHT22;20193;49.810;6.418;2022-08-11T20:48:49;23.30;48.80
33901;DHT22;20193;49.810;6.418;2022-08-11T20:51:38;23.10;49.20
33901;DHT22;20193;49.810;6.418;2022-08-11T20:54:25;23.00;49.70
33901;DHT22;20193;49.810;6.418;2022-08-11T20:57:12;22.90;49.60
33901;DHT22;20193;49.810;6.418;2022-08-11T20:59:59;22.80;49.60
33901;DHT22;20193;49.810;6.418;2022-08-11T21:02:45;22.70;49.90
33901;DHT22;20193;49.810;6.418;2022-08-11T21:05:34;22.60;50.00
33901;DHT22;20193;49.810;6.418;2022-08-11T21:08:20;22.50;51.00
33901;DHT22;20193;49.810;6.418;2022-08-11T21:11:06;22.40;50.50
33901;DHT22;20193;49.810;6.418;2022-08-11T21:13:52;22.30;50.90
33901;DHT22;20193;49.810;6.418;2022-08-11T21:16:38;22.20;51.10
33901;DHT22;20193;49.810;6.418;2022-08-11T21:19:26;22.10;51.60
33901;DHT22;20193;49.810;6.418;2022-08-11T21:22:17;22.00;52.00
33901;DHT22;20193;49.810;6.418;2022-08-11T21:25:04;21.90;52.20
33901;DHT22;20193;49.810;6.418;2022-08-11T21:27:51;21.80;52.20
33901;DHT22;20193;49.810;6.418;2022-08-11T21:30:36;21.70;52.20
33901;DHT22;20193;49.810;6.418;2022-08-11T21:33:21;21.60;52.70
33901;DHT22;20193;49.810;6.418;2022-08-11T21:36:06;21.50;52.80
33901;DHT22;20193;49.810;6.418;2022-08-11T21:38:52;21.50;53.30
33901;DHT22;20193;49.810;6.418;2022-08-11T21:41:37;21.40;53.70
33901;DHT22;20193;49.810;6.418;2022-08-11T21:44:22;21.30;53.80
33901;DHT22;20193;49.810;6.418;2022-08-11T21:47:09;21.20;53.80
33901;DHT22;20193;49.810;6.418;2022-08-11T21:49:54;21.10;54.20
33901;DHT22;20193;49.810;6.418;2022-08-11T21:52:39;21.00;55.10
33901;DHT22;20193;49.810;6.418;2022-08-11T21:55:24;21.00;54.80
33901;DHT22;20193;49.810;6.418;2022-08-11T21:58:09;20.90;55.00
33901;DHT22;20193;49.810;6.418;2022-08-11T22:00:54;20.80;55.20
33901;DHT22;20193;49.810;6.418;2022-08-11T22:03:39;20.70;55.30
33901;DHT22;20193;49.810;6.418;2022-08-11T22:06:24;20.70;55.40
33901;DHT22;20193;49.810;6.418;2022-08-11T22:09:09;20.60;55.50
33901;DHT22;20193;49.810;6.418;2022-08-11T22:11:53;20.50;55.70
33901;DHT22;20193;49.810;6.418;2022-08-11T22:14:37;20.40;56.10
33901;DHT22;20193;49.810;6.418;2022-08-11T22:20:26;20.30;57.30
33901;DHT22;20193;49.810;6.418;2022-08-11T22:23:15;20.20;57.40
33901;DHT22;20193;49.810;6.418;2022-08-11T22:26:00;20.20;57.40
33901;DHT22;20193;49.810;6.418;2022-08-11T22:28:45;20.10;57.30
33901;DHT22;20193;49.810;6.418;2022-08-11T22:31:30;20.00;57.60
33901;DHT22;20193;49.810;6.418;2022-08-11T22:34:17;20.00;57.90
33901;DHT22;20193;49.810;6.418;2022-08-11T22:37:02;19.90;58.70
33901;DHT22;20193;49.810;6.418;2022-08-11T22:39:47;19.80;58.30
33901;DHT22;20193;49.810;6.418;2022-08-11T22:42:33;19.80;58.50
33901;DHT22;20193;49.810;6.418;2022-08-11T22:45:18;19.70;58.50
33901;DHT22;20193;49.810;6.418;2022-08-11T22:48:07;19.60;58.50
33901;DHT22;20193;49.810;6.418;2022-08-11T22:50:52;19.60;58.70
33901;DHT22;20193;49.810;6.418;2022-08-11T22:53:38;19.50;58.60
33901;DHT22;20193;49.810;6.418;2022-08-11T22:56:23;19.40;58.80
33901;DHT22;20193;49.810;6.418;2022-08-11T22:59:08;19.40;58.90
33901;DHT22;20193;49.810;6.418;2022-08-11T23:01:53;19.30;59.20
33901;DHT22;20193;49.810;6.418;2022-08-11T23:04:39;19.20;59.30
33901;DHT22;20193;49.810;6.418;2022-08-11T23:07:23;19.20;60.00
33901;DHT22;20193;49.810;6.418;2022-08-11T23:10:08;19.10;59.40
33901;DHT22;20193;49.810;6.418;2022-08-11T23:12:53;19.10;60.30
33901;DHT22;20193;49.810;6.418;2022-08-11T23:15:39;19.00;60.00
33901;DHT22;20193;49.810;6.418;2022-08-11T23:18:24;18.90;60.00
33901;DHT22;20193;49.810;6.418;2022-08-11T23:21:10;18.90;60.20
33901;DHT22;20193;49.810;6.418;2022-08-11T23:23:58;18.80;60.20
33901;DHT22;20193;49.810;6.418;2022-08-11T23:26:43;18.70;60.40
33901;DHT22;20193;49.810;6.418;2022-08-11T23:29:30;18.60;60.50
33901;DHT22;20193;49.810;6.418;2022-08-11T23:32:16;18.60;60.60
33901;DHT22;20193;49.810;6.418;2022-08-11T23:35:01;18.50;60.80
33901;DHT22;20193;49.810;6.418;2022-08-11T23:37:46;18.50;61.00
33901;DHT22;20193;49.810;6.418;2022-08-11T23:40:30;18.40;61.10
33901;DHT22;20193;49.810;6.418;2022-08-11T23:43:19;18.30;61.20
33901;DHT22;20193;49.810;6.418;2022-08-11T23:46:03;18.30;61.50
33901;DHT22;20193;49.810;6.418;2022-08-11T23:48:51;18.30;61.90
33901;DHT22;20193;49.810;6.418;2022-08-11T23:51:38;18.20;62.10
33901;DHT22;20193;49.810;6.418;2022-08-11T23:54:24;18.20;62.60
33901;DHT22;20193;49.810;6.418;2022-08-11T23:57:09;18.10;62.70
33901;DHT22;20193;49.810;6.418;2022-08-11T23:59:53;18.00;63.30
